sensor_id;sensor_type;location;lat;lon;timestamp;P1;durP1;ratioP1;P2;durP2;ratioP2
50128;SDS011;36026;45.478;9.224;2023-03-18T00:00:25;22.60;;;12.10;;
50128;SDS011;36026;45.478;9.224;2023-03-18T00:03:27;21.45;;;13.73;;
50128;SDS011;36026;45.478;9.224;2023-03-18T00:06:29;20.55;;;12.70;;
50128;SDS011;36026;45.478;9.224;2023-03-18T00:09:31;25.23;;;13.35;;
50128;SDS011;36026;45.478;9.224;2023-03-18T00:12:34;21.58;;;11.93;;
50128;SDS011;36026;45.478;9.224;2023-03-18T00:15:37;20.10;;;12.30;;
50128;SDS011;36026;45.478;9.224;2023-03-18T00:18:39;24.02;;;12.18;;
50128;SDS011;36026;45.478;9.224;2023-03-18T00:21:42;26.65;;;12.82;;
50128;SDS011;36026;45.478;9.224;2023-03-18T00:24:44;24.23;;;12.77;;
50128;SDS011;36026;45.478;9.224;2023-03-18T00:27:47;33.78;;;18.95;;
50128;SDS011;36026;45.478;9.224;2023-03-18T00:30:49;39.43;;;21.77;;
50128;SDS011;36026;45.478;9.224;2023-03-18T00:33:52;67.88;;;37.92;;
50128;SDS011;36026;45.478;9.224;2023-03-18T00:36:54;35.22;;;17.88;;
50128;SDS011;36026;45.478;9.224;2023-03-18T00:39:57;48.05;;;23.88;;
50128;SDS011;36026;45.478;9.224;2023-03-18T00:43:08;29.05;;;16.70;;
50128;SDS011;36026;45.478;9.224;2023-03-18T00:46:12;22.90;;;13.38;;
50128;SDS011;36026;45.478;9.224;2023-03-18T00:49:15;25.08;;;13.40;;
50128;SDS011;36026;45.478;9.224;2023-03-18T00:52:17;25.83;;;14.13;;
50128;SDS011;36026;45.478;9.224;2023-03-18T00:55:19;22.77;;;13.15;;
50128;SDS011;36026;45.478;9.224;2023-03-18T00:58:22;19.55;;;11.88;;
50128;SDS011;36026;45.478;9.224;2023-03-18T01:01:25;22.05;;;13.80;;
50128;SDS011;36026;45.478;9.224;2023-03-18T01:04:50;22.65;;;12.82;;
50128;SDS011;36026;45.478;9.224;2023-03-18T01:08:16;23.40;;;12.95;;
50128;SDS011;36026;45.478;9.224;2023-03-18T01:18:35;22.98;;;13.70;;
50128;SDS011;36026;45.478;9.224;2023-03-18T01:21:38;21.10;;;13.57;;
50128;SDS011;36026;45.478;9.224;2023-03-18T01:24:52;24.05;;;14.05;;
50128;SDS011;36026;45.478;9.224;2023-03-18T01:27:57;21.00;;;14.00;;
50128;SDS011;36026;45.478;9.224;2023-03-18T01:31:04;22.20;;;14.30;;
50128;SDS011;36026;45.478;9.224;2023-03-18T01:34:20;24.50;;;13.48;;
50128;SDS011;36026;45.478;9.224;2023-03-18T01:37:22;21.38;;;13.95;;
50128;SDS011;36026;45.478;9.224;2023-03-18T01:40:25;22.58;;;13.45;;
50128;SDS011;36026;45.478;9.224;2023-03-18T01:47:28;23.05;;;13.52;;
50128;SDS011;36026;45.478;9.224;2023-03-18T01:50:31;20.13;;;13.15;;
50128;SDS011;36026;45.478;9.224;2023-03-18T01:57:32;24.40;;;14.05;;
50128;SDS011;36026;45.478;9.224;2023-03-18T02:04:03;22.55;;;14.55;;
50128;SDS011;36026;45.478;9.224;2023-03-18T02:07:21;22.45;;;14.50;;
50128;SDS011;36026;45.478;9.224;2023-03-18T02:10:26;24.95;;;14.38;;
50128;SDS011;36026;45.478;9.224;2023-03-18T02:13:43;28.40;;;15.20;;
50128;SDS011;36026;45.478;9.224;2023-03-18T02:20:42;25.35;;;15.00;;
50128;SDS011;36026;45.478;9.224;2023-03-18T02:31:40;28.15;;;14.77;;
50128;SDS011;36026;45.478;9.224;2023-03-18T02:34:45;24.45;;;13.38;;
50128;SDS011;36026;45.478;9.224;2023-03-18T02:44:40;27.55;;;15.10;;
50128;SDS011;36026;45.478;9.224;2023-03-18T02:48:35;26.13;;;14.80;;
50128;SDS011;36026;45.478;9.224;2023-03-18T02:51:52;25.45;;;15.98;;
50128;SDS011;36026;45.478;9.224;2023-03-18T02:55:08;23.98;;;15.57;;
50128;SDS011;36026;45.478;9.224;2023-03-18T02:58:10;25.10;;;15.60;;
50128;SDS011;36026;45.478;9.224;2023-03-18T03:01:14;30.85;;;16.50;;
50128;SDS011;36026;45.478;9.224;2023-03-18T03:04:51;27.17;;;15.10;;
50128;SDS011;36026;45.478;9.224;2023-03-18T03:11:50;30.48;;;17.52;;
50128;SDS011;36026;45.478;9.224;2023-03-18T03:15:06;30.15;;;16.17;;
50128;SDS011;36026;45.478;9.224;2023-03-18T03:21:39;33.75;;;16.88;;
50128;SDS011;36026;45.478;9.224;2023-03-18T03:24:59;29.42;;;16.92;;
50128;SDS011;36026;45.478;9.224;2023-03-18T03:28:05;30.95;;;16.10;;
50128;SDS011;36026;45.478;9.224;2023-03-18T03:31:07;24.92;;;16.05;;
50128;SDS011;36026;45.478;9.224;2023-03-18T03:34:20;27.00;;;16.13;;
50128;SDS011;36026;45.478;9.224;2023-03-18T03:40:37;25.33;;;15.40;;
50128;SDS011;36026;45.478;9.224;2023-03-18T03:43:39;31.92;;;17.15;;
50128;SDS011;36026;45.478;9.224;2023-03-18T03:46:42;25.45;;;16.15;;
50128;SDS011;36026;45.478;9.224;2023-03-18T03:49:49;25.10;;;15.27;;
50128;SDS011;36026;45.478;9.224;2023-03-18T03:52:51;25.10;;;14.93;;
50128;SDS011;36026;45.478;9.224;2023-03-18T03:55:53;19.92;;;14.18;;
50128;SDS011;36026;45.478;9.224;2023-03-18T03:58:55;29.83;;;16.23;;
50128;SDS011;36026;45.478;9.224;2023-03-18T04:01:57;26.25;;;16.02;;
50128;SDS011;36026;45.478;9.224;2023-03-18T04:05:00;28.23;;;15.45;;
50128;SDS011;36026;45.478;9.224;2023-03-18T04:08:02;25.50;;;15.68;;
50128;SDS011;36026;45.478;9.224;2023-03-18T04:11:04;25.38;;;15.95;;
50128;SDS011;36026;45.478;9.224;2023-03-18T04:14:06;26.17;;;16.17;;
50128;SDS011;36026;45.478;9.224;2023-03-18T04:17:11;28.33;;;15.30;;
50128;SDS011;36026;45.478;9.224;2023-03-18T04:20:16;26.02;;;15.48;;
50128;SDS011;36026;45.478;9.224;2023-03-18T04:23:20;24.33;;;14.88;;
50128;SDS011;36026;45.478;9.224;2023-03-18T04:26:22;27.98;;;15.98;;
50128;SDS011;36026;45.478;9.224;2023-03-18T04:29:24;27.13;;;16.27;;
50128;SDS011;36026;45.478;9.224;2023-03-18T04:32:26;26.23;;;15.23;;
50128;SDS011;36026;45.478;9.224;2023-03-18T04:35:30;26.65;;;15.30;;
50128;SDS011;36026;45.478;9.224;2023-03-18T04:38:33;22.50;;;14.82;;
50128;SDS011;36026;45.478;9.224;2023-03-18T04:41:34;24.75;;;14.68;;
50128;SDS011;36026;45.478;9.224;2023-03-18T04:44:38;25.00;;;15.30;;
50128;SDS011;36026;45.478;9.224;2023-03-18T04:47:40;21.23;;;14.82;;
50128;SDS011;36026;45.478;9.224;2023-03-18T04:50:46;24.42;;;14.95;;
50128;SDS011;36026;45.478;9.224;2023-03-18T04:53:47;28.27;;;16.27;;
50128;SDS011;36026;45.478;9.224;2023-03-18T04:56:49;28.90;;;16.00;;
50128;SDS011;36026;45.478;9.224;2023-03-18T04:59:52;28.55;;;16.23;;
50128;SDS011;36026;45.478;9.224;2023-03-18T05:02:53;23.25;;;15.57;;
50128;SDS011;36026;45.478;9.224;2023-03-18T05:05:57;23.15;;;15.48;;
50128;SDS011;36026;45.478;9.224;2023-03-18T05:08:59;25.40;;;15.27;;
50128;SDS011;36026;45.478;9.224;2023-03-18T05:12:01;26.15;;;15.00;;
50128;SDS011;36026;45.478;9.224;2023-03-18T05:15:07;23.27;;;14.45;;
50128;SDS011;36026;45.478;9.224;2023-03-18T05:18:12;21.02;;;13.23;;
50128;SDS011;36026;45.478;9.224;2023-03-18T05:21:17;20.20;;;13.57;;
50128;SDS011;36026;45.478;9.224;2023-03-18T05:24:18;24.77;;;14.00;;
50128;SDS011;36026;45.478;9.224;2023-03-18T05:27:20;22.40;;;12.73;;
50128;SDS011;36026;45.478;9.224;2023-03-18T05:34:11;21.33;;;12.90;;
50128;SDS011;36026;45.478;9.224;2023-03-18T05:37:14;25.20;;;13.52;;
50128;SDS011;36026;45.478;9.224;2023-03-18T05:40:16;19.05;;;13.13;;
50128;SDS011;36026;45.478;9.224;2023-03-18T05:43:19;20.75;;;13.05;;
50128;SDS011;36026;45.478;9.224;2023-03-18T05:46:28;21.33;;;13.95;;
50128;SDS011;36026;45.478;9.224;2023-03-18T05:49:31;19.77;;;13.20;;
50128;SDS011;36026;45.478;9.224;2023-03-18T05:52:40;23.20;;;13.70;;
50128;SDS011;36026;45.478;9.224;2023-03-18T05:59:13;25.52;;;14.35;;
50128;SDS011;36026;45.478;9.224;2023-03-18T06:02:27;21.05;;;14.40;;
50128;SDS011;36026;45.478;9.224;2023-03-18T06:05:31;19.65;;;13.82;;
50128;SDS011;36026;45.478;9.224;2023-03-18T06:12:25;21.20;;;13.98;;
50128;SDS011;36026;45.478;9.224;2023-03-18T06:15:30;19.55;;;13.32;;
50128;SDS011;36026;45.478;9.224;2023-03-18T06:18:32;25.50;;;14.95;;
50128;SDS011;36026;45.478;9.224;2023-03-18T06:21:34;19.50;;;14.23;;
50128;SDS011;36026;45.478;9.224;2023-03-18T06:24:37;26.50;;;15.55;;
50128;SDS011;36026;45.478;9.224;2023-03-18T06:27:44;20.60;;;13.25;;
50128;SDS011;36026;45.478;9.224;2023-03-18T06:30:47;22.30;;;14.75;;
50128;SDS011;36026;45.478;9.224;2023-03-18T06:41:39;21.20;;;14.20;;
50128;SDS011;36026;45.478;9.224;2023-03-18T06:44:57;28.83;;;15.23;;
50128;SDS011;36026;45.478;9.224;2023-03-18T06:52:57;28.58;;;16.35;;
50128;SDS011;36026;45.478;9.224;2023-03-18T06:55:59;27.48;;;16.13;;
50128;SDS011;36026;45.478;9.224;2023-03-18T06:59:02;27.98;;;15.43;;
50128;SDS011;36026;45.478;9.224;2023-03-18T07:06:00;25.75;;;16.65;;
50128;SDS011;36026;45.478;9.224;2023-03-18T07:09:05;22.00;;;15.95;;
50128;SDS011;36026;45.478;9.224;2023-03-18T07:12:23;27.17;;;16.00;;
50128;SDS011;36026;45.478;9.224;2023-03-18T07:18:45;23.50;;;16.20;;
50128;SDS011;36026;45.478;9.224;2023-03-18T07:21:52;25.02;;;16.52;;
50128;SDS011;36026;45.478;9.224;2023-03-18T07:24:58;29.02;;;16.88;;
50128;SDS011;36026;45.478;9.224;2023-03-18T07:31:36;26.80;;;17.52;;
50128;SDS011;36026;45.478;9.224;2023-03-18T07:38:07;24.98;;;17.20;;
50128;SDS011;36026;45.478;9.224;2023-03-18T07:44:37;25.92;;;17.67;;
50128;SDS011;36026;45.478;9.224;2023-03-18T07:47:39;28.38;;;17.40;;
50128;SDS011;36026;45.478;9.224;2023-03-18T07:50:41;25.50;;;16.45;;
50128;SDS011;36026;45.478;9.224;2023-03-18T07:53:48;27.00;;;16.50;;
50128;SDS011;36026;45.478;9.224;2023-03-18T07:56:50;26.45;;;16.08;;
50128;SDS011;36026;45.478;9.224;2023-03-18T07:59:57;27.85;;;15.85;;
50128;SDS011;36026;45.478;9.224;2023-03-18T08:02:59;412.70;;;45.47;;
50128;SDS011;36026;45.478;9.224;2023-03-18T08:06:03;38.07;;;17.10;;
50128;SDS011;36026;45.478;9.224;2023-03-18T08:09:09;24.83;;;14.95;;
50128;SDS011;36026;45.478;9.224;2023-03-18T08:12:11;26.20;;;16.55;;
50128;SDS011;36026;45.478;9.224;2023-03-18T08:22:20;23.60;;;17.05;;
50128;SDS011;36026;45.478;9.224;2023-03-18T08:25:26;24.38;;;16.95;;
50128;SDS011;36026;45.478;9.224;2023-03-18T08:28:28;23.33;;;17.27;;
50128;SDS011;36026;45.478;9.224;2023-03-18T08:31:30;23.95;;;16.85;;
50128;SDS011;36026;45.478;9.224;2023-03-18T08:34:31;22.35;;;16.77;;
50128;SDS011;36026;45.478;9.224;2023-03-18T08:37:33;23.27;;;16.90;;
50128;SDS011;36026;45.478;9.224;2023-03-18T08:40:38;22.77;;;16.77;;
50128;SDS011;36026;45.478;9.224;2023-03-18T08:43:40;21.85;;;16.50;;
50128;SDS011;36026;45.478;9.224;2023-03-18T08:46:44;24.58;;;16.95;;
50128;SDS011;36026;45.478;9.224;2023-03-18T08:49:46;24.58;;;16.92;;
50128;SDS011;36026;45.478;9.224;2023-03-18T08:52:51;23.40;;;16.75;;
50128;SDS011;36026;45.478;9.224;2023-03-18T08:55:57;24.05;;;16.52;;
50128;SDS011;36026;45.478;9.224;2023-03-18T08:58:59;22.40;;;16.77;;
50128;SDS011;36026;45.478;9.224;2023-03-18T09:02:09;22.33;;;16.02;;
50128;SDS011;36026;45.478;9.224;2023-03-18T09:05:14;24.50;;;17.10;;
50128;SDS011;36026;45.478;9.224;2023-03-18T09:08:15;22.48;;;17.33;;
50128;SDS011;36026;45.478;9.224;2023-03-18T09:11:22;26.33;;;16.65;;
50128;SDS011;36026;45.478;9.224;2023-03-18T09:14:24;28.85;;;17.60;;
50128;SDS011;36026;45.478;9.224;2023-03-18T09:17:26;20.90;;;16.05;;
50128;SDS011;36026;45.478;9.224;2023-03-18T09:20:28;19.70;;;15.55;;
50128;SDS011;36026;45.478;9.224;2023-03-18T09:23:32;21.80;;;15.53;;
50128;SDS011;36026;45.478;9.224;2023-03-18T09:26:49;19.85;;;15.13;;
50128;SDS011;36026;45.478;9.224;2023-03-18T09:29:51;23.02;;;16.65;;
50128;SDS011;36026;45.478;9.224;2023-03-18T09:33:06;21.48;;;15.85;;
50128;SDS011;36026;45.478;9.224;2023-03-18T09:36:10;22.42;;;15.10;;
50128;SDS011;36026;45.478;9.224;2023-03-18T09:39:13;21.85;;;15.52;;
50128;SDS011;36026;45.478;9.224;2023-03-18T09:46:16;22.75;;;16.05;;
50128;SDS011;36026;45.478;9.224;2023-03-18T09:49:25;22.42;;;15.85;;
50128;SDS011;36026;45.478;9.224;2023-03-18T09:52:36;19.55;;;15.15;;
50128;SDS011;36026;45.478;9.224;2023-03-18T09:55:41;18.20;;;14.20;;
50128;SDS011;36026;45.478;9.224;2023-03-18T09:59:05;21.33;;;15.52;;
50128;SDS011;36026;45.478;9.224;2023-03-18T10:02:19;18.58;;;15.27;;
50128;SDS011;36026;45.478;9.224;2023-03-18T10:05:24;18.73;;;14.18;;
50128;SDS011;36026;45.478;9.224;2023-03-18T10:08:38;19.63;;;15.35;;
50128;SDS011;36026;45.478;9.224;2023-03-18T10:12:06;21.77;;;15.68;;
50128;SDS011;36026;45.478;9.224;2023-03-18T10:15:17;18.55;;;15.13;;
50128;SDS011;36026;45.478;9.224;2023-03-18T10:18:25;18.00;;;14.15;;
50128;SDS011;36026;45.478;9.224;2023-03-18T10:21:32;17.85;;;14.10;;
50128;SDS011;36026;45.478;9.224;2023-03-18T10:25:02;17.83;;;14.15;;
50128;SDS011;36026;45.478;9.224;2023-03-18T10:32:04;19.38;;;13.93;;
50128;SDS011;36026;45.478;9.224;2023-03-18T10:35:17;19.13;;;14.73;;
50128;SDS011;36026;45.478;9.224;2023-03-18T10:38:24;20.85;;;15.02;;
50128;SDS011;36026;45.478;9.224;2023-03-18T10:41:31;16.92;;;14.18;;
50128;SDS011;36026;45.478;9.224;2023-03-18T10:44:36;17.60;;;14.57;;
50128;SDS011;36026;45.478;9.224;2023-03-18T10:47:40;17.85;;;13.98;;
50128;SDS011;36026;45.478;9.224;2023-03-18T10:50:47;19.58;;;14.43;;
50128;SDS011;36026;45.478;9.224;2023-03-18T10:53:55;18.35;;;15.73;;
50128;SDS011;36026;45.478;9.224;2023-03-18T10:56:59;18.95;;;15.20;;
50128;SDS011;36026;45.478;9.224;2023-03-18T11:00:01;17.77;;;15.57;;
50128;SDS011;36026;45.478;9.224;2023-03-18T11:03:18;20.08;;;15.45;;
50128;SDS011;36026;45.478;9.224;2023-03-18T11:06:29;20.38;;;16.38;;
50128;SDS011;36026;45.478;9.224;2023-03-18T11:09:36;18.92;;;16.00;;
50128;SDS011;36026;45.478;9.224;2023-03-18T11:12:41;21.00;;;15.80;;
50128;SDS011;36026;45.478;9.224;2023-03-18T11:15:44;21.70;;;15.27;;
50128;SDS011;36026;45.478;9.224;2023-03-18T11:18:50;20.17;;;16.52;;
50128;SDS011;36026;45.478;9.224;2023-03-18T11:22:14;22.45;;;16.85;;
50128;SDS011;36026;45.478;9.224;2023-03-18T11:28:35;21.65;;;16.25;;
50128;SDS011;36026;45.478;9.224;2023-03-18T11:31:49;22.25;;;16.60;;
50128;SDS011;36026;45.478;9.224;2023-03-18T11:38:27;23.10;;;16.77;;
50128;SDS011;36026;45.478;9.224;2023-03-18T11:41:30;27.98;;;18.52;;
50128;SDS011;36026;45.478;9.224;2023-03-18T11:44:32;28.88;;;18.02;;
50128;SDS011;36026;45.478;9.224;2023-03-18T11:47:34;23.85;;;18.65;;
50128;SDS011;36026;45.478;9.224;2023-03-18T11:50:38;25.08;;;18.75;;
50128;SDS011;36026;45.478;9.224;2023-03-18T11:53:49;26.38;;;20.00;;
50128;SDS011;36026;45.478;9.224;2023-03-18T11:56:58;24.38;;;17.63;;
50128;SDS011;36026;45.478;9.224;2023-03-18T12:00:24;23.92;;;18.90;;
50128;SDS011;36026;45.478;9.224;2023-03-18T12:07:49;19.98;;;16.98;;
50128;SDS011;36026;45.478;9.224;2023-03-18T12:11:00;25.65;;;17.88;;
50128;SDS011;36026;45.478;9.224;2023-03-18T12:14:08;23.23;;;18.38;;
50128;SDS011;36026;45.478;9.224;2023-03-18T12:20:42;21.80;;;17.75;;
50128;SDS011;36026;45.478;9.224;2023-03-18T12:23:54;22.52;;;18.00;;
50128;SDS011;36026;45.478;9.224;2023-03-18T12:27:13;22.27;;;17.98;;
50128;SDS011;36026;45.478;9.224;2023-03-18T12:30:31;25.83;;;17.05;;
50128;SDS011;36026;45.478;9.224;2023-03-18T12:37:09;19.25;;;16.98;;
50128;SDS011;36026;45.478;9.224;2023-03-18T12:40:33;21.02;;;16.63;;
50128;SDS011;36026;45.478;9.224;2023-03-18T12:43:59;23.38;;;16.50;;
50128;SDS011;36026;45.478;9.224;2023-03-18T12:54:09;19.40;;;16.40;;
50128;SDS011;36026;45.478;9.224;2023-03-18T12:57:16;20.65;;;16.42;;
50128;SDS011;36026;45.478;9.224;2023-03-18T13:00:36;20.88;;;15.52;;
50128;SDS011;36026;45.478;9.224;2023-03-18T13:03:51;21.70;;;15.98;;
50128;SDS011;36026;45.478;9.224;2023-03-18T13:07:06;26.45;;;17.05;;
50128;SDS011;36026;45.478;9.224;2023-03-18T13:10:19;18.42;;;14.70;;
50128;SDS011;36026;45.478;9.224;2023-03-18T13:13:32;22.05;;;15.35;;
50128;SDS011;36026;45.478;9.224;2023-03-18T13:16:40;19.02;;;14.15;;
50128;SDS011;36026;45.478;9.224;2023-03-18T13:19:42;18.33;;;15.18;;
50128;SDS011;36026;45.478;9.224;2023-03-18T13:26:39;19.02;;;14.93;;
50128;SDS011;36026;45.478;9.224;2023-03-18T13:29:49;17.30;;;14.40;;
50128;SDS011;36026;45.478;9.224;2023-03-18T13:37:05;18.67;;;13.63;;
50128;SDS011;36026;45.478;9.224;2023-03-18T13:40:51;17.23;;;13.85;;
50128;SDS011;36026;45.478;9.224;2023-03-18T13:44:35;18.45;;;14.50;;
50128;SDS011;36026;45.478;9.224;2023-03-18T13:47:41;14.85;;;11.90;;
50128;SDS011;36026;45.478;9.224;2023-03-18T13:50:44;15.88;;;11.52;;
50128;SDS011;36026;45.478;9.224;2023-03-18T13:58:43;14.07;;;11.52;;
50128;SDS011;36026;45.478;9.224;2023-03-18T14:01:53;16.75;;;12.82;;
50128;SDS011;36026;45.478;9.224;2023-03-18T14:04:55;15.93;;;12.38;;
50128;SDS011;36026;45.478;9.224;2023-03-18T14:07:58;16.88;;;12.43;;
50128;SDS011;36026;45.478;9.224;2023-03-18T14:22:13;16.85;;;12.50;;
50128;SDS011;36026;45.478;9.224;2023-03-18T14:25:40;19.77;;;13.30;;
50128;SDS011;36026;45.478;9.224;2023-03-18T14:29:12;18.50;;;13.15;;
50128;SDS011;36026;45.478;9.224;2023-03-18T14:35:47;15.20;;;12.35;;
50128;SDS011;36026;45.478;9.224;2023-03-18T14:38:53;17.13;;;11.95;;
50128;SDS011;36026;45.478;9.224;2023-03-18T14:42:26;16.50;;;11.82;;
50128;SDS011;36026;45.478;9.224;2023-03-18T14:45:32;13.60;;;11.45;;
50128;SDS011;36026;45.478;9.224;2023-03-18T14:48:37;14.60;;;11.70;;
50128;SDS011;36026;45.478;9.224;2023-03-18T14:51:52;16.73;;;11.07;;
50128;SDS011;36026;45.478;9.224;2023-03-18T14:55:00;15.32;;;11.30;;
50128;SDS011;36026;45.478;9.224;2023-03-18T14:58:03;14.77;;;10.57;;
50128;SDS011;36026;45.478;9.224;2023-03-18T15:01:05;14.63;;;10.85;;
50128;SDS011;36026;45.478;9.224;2023-03-18T15:04:12;14.60;;;10.98;;
50128;SDS011;36026;45.478;9.224;2023-03-18T15:07:21;14.95;;;11.13;;
50128;SDS011;36026;45.478;9.224;2023-03-18T15:10:29;13.60;;;10.45;;
50128;SDS011;36026;45.478;9.224;2023-03-18T15:13:34;13.00;;;10.23;;
50128;SDS011;36026;45.478;9.224;2023-03-18T15:20:00;13.10;;;10.15;;
50128;SDS011;36026;45.478;9.224;2023-03-18T15:23:06;15.68;;;10.57;;
50128;SDS011;36026;45.478;9.224;2023-03-18T15:26:13;14.73;;;10.63;;
50128;SDS011;36026;45.478;9.224;2023-03-18T15:29:24;14.75;;;10.68;;
50128;SDS011;36026;45.478;9.224;2023-03-18T15:32:41;13.85;;;10.43;;
50128;SDS011;36026;45.478;9.224;2023-03-18T15:35:44;17.23;;;10.48;;
50128;SDS011;36026;45.478;9.224;2023-03-18T15:38:55;19.20;;;10.50;;
50128;SDS011;36026;45.478;9.224;2023-03-18T15:41:58;14.50;;;10.40;;
50128;SDS011;36026;45.478;9.224;2023-03-18T15:45:02;14.00;;;9.50;;
50128;SDS011;36026;45.478;9.224;2023-03-18T15:48:15;12.25;;;9.60;;
50128;SDS011;36026;45.478;9.224;2023-03-18T15:51:25;12.00;;;9.15;;
50128;SDS011;36026;45.478;9.224;2023-03-18T15:54:35;12.55;;;9.35;;
50128;SDS011;36026;45.478;9.224;2023-03-18T15:57:39;12.18;;;9.13;;
50128;SDS011;36026;45.478;9.224;2023-03-18T16:00:43;13.23;;;10.15;;
50128;SDS011;36026;45.478;9.224;2023-03-18T16:03:45;12.70;;;9.10;;
50128;SDS011;36026;45.478;9.224;2023-03-18T16:07:00;12.88;;;10.70;;
50128;SDS011;36026;45.478;9.224;2023-03-18T16:10:05;14.50;;;10.85;;
50128;SDS011;36026;45.478;9.224;2023-03-18T16:13:08;13.65;;;9.75;;
50128;SDS011;36026;45.478;9.224;2023-03-18T16:16:20;14.85;;;9.73;;
50128;SDS011;36026;45.478;9.224;2023-03-18T16:19:25;15.10;;;10.20;;
50128;SDS011;36026;45.478;9.224;2023-03-18T16:22:28;14.30;;;10.15;;
50128;SDS011;36026;45.478;9.224;2023-03-18T16:25:32;14.90;;;10.52;;
50128;SDS011;36026;45.478;9.224;2023-03-18T16:28:34;15.38;;;10.05;;
50128;SDS011;36026;45.478;9.224;2023-03-18T16:31:37;16.50;;;9.67;;
50128;SDS011;36026;45.478;9.224;2023-03-18T16:34:39;15.23;;;9.90;;
50128;SDS011;36026;45.478;9.224;2023-03-18T16:37:43;15.88;;;9.30;;
50128;SDS011;36026;45.478;9.224;2023-03-18T16:40:49;14.18;;;9.60;;
50128;SDS011;36026;45.478;9.224;2023-03-18T16:43:51;16.67;;;10.70;;
50128;SDS011;36026;45.478;9.224;2023-03-18T16:46:54;14.73;;;10.13;;
50128;SDS011;36026;45.478;9.224;2023-03-18T16:49:56;16.30;;;10.43;;
50128;SDS011;36026;45.478;9.224;2023-03-18T16:52:58;19.15;;;10.52;;
50128;SDS011;36026;45.478;9.224;2023-03-18T16:56:08;18.33;;;9.75;;
50128;SDS011;36026;45.478;9.224;2023-03-18T16:59:14;14.82;;;10.07;;
50128;SDS011;36026;45.478;9.224;2023-03-18T17:02:27;17.50;;;10.15;;
50128;SDS011;36026;45.478;9.224;2023-03-18T17:05:31;13.77;;;9.15;;
50128;SDS011;36026;45.478;9.224;2023-03-18T17:08:33;18.17;;;10.27;;
50128;SDS011;36026;45.478;9.224;2023-03-18T17:11:37;18.73;;;10.93;;
50128;SDS011;36026;45.478;9.224;2023-03-18T17:14:39;17.60;;;9.60;;
50128;SDS011;36026;45.478;9.224;2023-03-18T17:17:42;15.30;;;10.68;;
50128;SDS011;36026;45.478;9.224;2023-03-18T17:20:48;18.42;;;10.32;;
50128;SDS011;36026;45.478;9.224;2023-03-18T17:23:50;30.20;;;11.27;;
50128;SDS011;36026;45.478;9.224;2023-03-18T17:26:53;16.15;;;10.18;;
50128;SDS011;36026;45.478;9.224;2023-03-18T17:29:55;22.55;;;10.90;;
50128;SDS011;36026;45.478;9.224;2023-03-18T17:32:57;19.58;;;10.75;;
50128;SDS011;36026;45.478;9.224;2023-03-18T17:35:59;16.48;;;10.13;;
50128;SDS011;36026;45.478;9.224;2023-03-18T17:39:01;15.50;;;9.55;;
50128;SDS011;36026;45.478;9.224;2023-03-18T17:42:07;19.15;;;10.52;;
50128;SDS011;36026;45.478;9.224;2023-03-18T17:45:21;17.90;;;10.93;;
50128;SDS011;36026;45.478;9.224;2023-03-18T17:48:26;15.90;;;10.40;;
50128;SDS011;36026;45.478;9.224;2023-03-18T17:51:29;16.25;;;9.60;;
50128;SDS011;36026;45.478;9.224;2023-03-18T17:54:32;17.70;;;10.88;;
50128;SDS011;36026;45.478;9.224;2023-03-18T17:57:35;17.02;;;10.32;;
50128;SDS011;36026;45.478;9.224;2023-03-18T18:00:37;19.30;;;10.57;;
50128;SDS011;36026;45.478;9.224;2023-03-18T18:03:39;21.55;;;10.88;;
50128;SDS011;36026;45.478;9.224;2023-03-18T18:06:41;18.45;;;11.23;;
50128;SDS011;36026;45.478;9.224;2023-03-18T18:09:57;16.55;;;10.07;;
50128;SDS011;36026;45.478;9.224;2023-03-18T18:13:07;15.93;;;10.90;;
50128;SDS011;36026;45.478;9.224;2023-03-18T18:16:34;17.70;;;10.65;;
50128;SDS011;36026;45.478;9.224;2023-03-18T18:19:36;19.27;;;10.90;;
50128;SDS011;36026;45.478;9.224;2023-03-18T18:22:41;23.63;;;11.38;;
50128;SDS011;36026;45.478;9.224;2023-03-18T18:25:45;22.08;;;12.57;;
50128;SDS011;36026;45.478;9.224;2023-03-18T18:28:49;17.40;;;11.60;;
50128;SDS011;36026;45.478;9.224;2023-03-18T18:31:51;18.02;;;11.45;;
50128;SDS011;36026;45.478;9.224;2023-03-18T18:38:22;18.30;;;11.60;;
50128;SDS011;36026;45.478;9.224;2023-03-18T18:41:25;24.48;;;12.07;;
50128;SDS011;36026;45.478;9.224;2023-03-18T18:44:28;21.80;;;12.35;;
50128;SDS011;36026;45.478;9.224;2023-03-18T18:47:33;20.23;;;12.68;;
50128;SDS011;36026;45.478;9.224;2023-03-18T18:50:39;20.10;;;11.82;;
50128;SDS011;36026;45.478;9.224;2023-03-18T18:53:44;20.83;;;12.60;;
50128;SDS011;36026;45.478;9.224;2023-03-18T18:56:46;21.30;;;12.18;;
50128;SDS011;36026;45.478;9.224;2023-03-18T18:59:50;20.20;;;12.38;;
50128;SDS011;36026;45.478;9.224;2023-03-18T19:02:52;20.83;;;12.60;;
50128;SDS011;36026;45.478;9.224;2023-03-18T19:05:59;24.20;;;12.15;;
50128;SDS011;36026;45.478;9.224;2023-03-18T19:09:01;23.40;;;12.77;;
50128;SDS011;36026;45.478;9.224;2023-03-18T19:12:20;21.95;;;12.55;;
50128;SDS011;36026;45.478;9.224;2023-03-18T19:15:23;21.60;;;12.75;;
50128;SDS011;36026;45.478;9.224;2023-03-18T19:18:29;20.17;;;12.27;;
50128;SDS011;36026;45.478;9.224;2023-03-18T19:21:37;22.20;;;13.35;;
50128;SDS011;36026;45.478;9.224;2023-03-18T19:24:39;22.38;;;13.10;;
50128;SDS011;36026;45.478;9.224;2023-03-18T19:27:42;24.13;;;13.52;;
50128;SDS011;36026;45.478;9.224;2023-03-18T19:30:46;22.20;;;13.65;;
50128;SDS011;36026;45.478;9.224;2023-03-18T19:33:54;24.27;;;13.95;;
50128;SDS011;36026;45.478;9.224;2023-03-18T19:36:56;20.42;;;13.60;;
50128;SDS011;36026;45.478;9.224;2023-03-18T19:40:01;23.10;;;13.30;;
50128;SDS011;36026;45.478;9.224;2023-03-18T19:43:28;21.88;;;12.52;;
50128;SDS011;36026;45.478;9.224;2023-03-18T19:46:32;23.27;;;13.75;;
50128;SDS011;36026;45.478;9.224;2023-03-18T19:49:37;24.00;;;13.65;;
50128;SDS011;36026;45.478;9.224;2023-03-18T19:52:42;24.92;;;14.60;;
50128;SDS011;36026;45.478;9.224;2023-03-18T19:55:47;25.45;;;14.00;;
50128;SDS011;36026;45.478;9.224;2023-03-18T20:06:05;28.92;;;13.80;;
50128;SDS011;36026;45.478;9.224;2023-03-18T20:09:29;26.65;;;14.55;;
50128;SDS011;36026;45.478;9.224;2023-03-18T20:12:32;26.27;;;14.60;;
50128;SDS011;36026;45.478;9.224;2023-03-18T20:18:16;25.20;;;13.60;;
50128;SDS011;36026;45.478;9.224;2023-03-18T20:19:48;21.35;;;11.20;;
50128;SDS011;36026;45.478;9.224;2023-03-18T20:22:52;28.50;;;13.05;;
50128;SDS011;36026;45.478;9.224;2023-03-18T20:25:56;16.38;;;9.32;;
50128;SDS011;36026;45.478;9.224;2023-03-18T20:29:04;15.20;;;7.25;;
50128;SDS011;36026;45.478;9.224;2023-03-18T20:32:19;11.88;;;7.03;;
50128;SDS011;36026;45.478;9.224;2023-03-18T20:35:23;14.80;;;6.28;;
50128;SDS011;36026;45.478;9.224;2023-03-18T20:38:36;10.35;;;5.68;;
50128;SDS011;36026;45.478;9.224;2023-03-18T20:41:40;10.93;;;5.50;;
50128;SDS011;36026;45.478;9.224;2023-03-18T20:44:42;10.68;;;5.68;;
50128;SDS011;36026;45.478;9.224;2023-03-18T20:47:49;13.45;;;5.72;;
50128;SDS011;36026;45.478;9.224;2023-03-18T20:50:52;9.88;;;5.35;;
50128;SDS011;36026;45.478;9.224;2023-03-18T20:53:56;12.77;;;5.85;;
50128;SDS011;36026;45.478;9.224;2023-03-18T20:57:07;11.07;;;6.07;;
50128;SDS011;36026;45.478;9.224;2023-03-18T21:00:16;10.57;;;5.95;;
50128;SDS011;36026;45.478;9.224;2023-03-18T21:03:35;9.82;;;5.35;;
50128;SDS011;36026;45.478;9.224;2023-03-18T21:06:48;11.55;;;5.45;;